Susan Elizabeth — WDG4681 — position and weather

sailwx.info

Track history (hours):
 
Tides and Currents Weather Stations Pressure Air Temp Water Temp Dewpoint Dewpoint Depression Visibility Wind Speed Wind Dir Waves Ship Positions

Susan Elizabeth

Owner: Kirby Inland Marine, LP, Houston, TX. More information available from US FCC via Universal Licensing System and Coast Guard Vessel Documentation Center.

Last reported at 2017-Sep-24 04:35 UTC. Time now 2017-Sep-24 19:11 UTC.
Position N 29°33' W 090°24'.

Length 23 m; draft 3 m.

Type: Other ship. MMSI: 367022350.

Date/timePositionNaut miles runAvg speedWind from/ knotsBaromVisibWave heightAir tempDewpointWater temp
2017-Sep-24 04:35N 29°33' W 090°24'0 5.4
2017-Sep-24 04:30N 29°33' W 090°25'1 2.7
2017-Sep-24 04:01N 29°33' W 090°26'1 2.5
2017-Sep-24 03:30N 29°33' W 090°28'3 5.9
2017-Sep-24 03:00N 29°34' W 090°31'3 5.6
2017-Sep-24 02:30N 29°34' W 090°34'2 4.6
2017-Sep-24 02:01N 29°35' W 090°37'1 2.6
2017-Sep-24 01:30N 29°35' W 090°38'2 3.5
2017-Sep-24 01:01N 29°36' W 090°40'2 3.5
2017-Sep-24 00:30N 29°37' W 090°42'2 3.1
2017-Sep-24 00:01N 29°35' W 090°43'2 3.6
2017-Sep-23 23:30N 29°34' W 090°44'2 3.4
2017-Sep-23 23:00N 29°33' W 090°45'0 0.0
2017-Sep-23 22:30N 29°33' W 090°45'0 0.1
2017-Sep-23 22:00N 29°33' W 090°45'2 3.9
2017-Sep-23 21:31N 29°32' W 090°47'3 6.4
2017-Sep-23 21:00N 29°32' W 090°51'  
2017-Sep-16 06:47N 29°25' W 094°43'0 0.0
2017-Sep-16 06:30N 29°25' W 094°43'  
Track history (hours):
 
Tides and Currents Weather Stations Pressure Air Temp Water Temp Dewpoint Dewpoint Depression Visibility Wind Speed Wind Dir Waves Ship Positions

Susan Elizabeth

Owner: Kirby Inland Marine, LP, Houston, TX. More information available from US FCC via Universal Licensing System and Coast Guard Vessel Documentation Center.

Last reported at 2017-Sep-24 04:35 UTC. Time now 2017-Sep-24 19:11 UTC.
Position N 29°33' W 090°24'.

Length 23 m; draft 3 m.

Type: Other ship. MMSI: 367022350.

Date/timePositionNaut miles runAvg speedWind from/ knotsBaromVisibWave heightAir tempDewpointWater temp
2017-Sep-24 04:35N 29°33' W 090°24'0 5.4
2017-Sep-24 04:30N 29°33' W 090°25'1 2.7
2017-Sep-24 04:01N 29°33' W 090°26'1 2.5
2017-Sep-24 03:30N 29°33' W 090°28'3 5.9
2017-Sep-24 03:00N 29°34' W 090°31'3 5.6
2017-Sep-24 02:30N 29°34' W 090°34'2 4.6
2017-Sep-24 02:01N 29°35' W 090°37'1 2.6
2017-Sep-24 01:30N 29°35' W 090°38'2 3.5
2017-Sep-24 01:01N 29°36' W 090°40'2 3.5
2017-Sep-24 00:30N 29°37' W 090°42'2 3.1
2017-Sep-24 00:01N 29°35' W 090°43'2 3.6
2017-Sep-23 23:30N 29°34' W 090°44'2 3.4
2017-Sep-23 23:00N 29°33' W 090°45'0 0.0
2017-Sep-23 22:30N 29°33' W 090°45'0 0.1
2017-Sep-23 22:00N 29°33' W 090°45'2 3.9
2017-Sep-23 21:31N 29°32' W 090°47'3 6.4
2017-Sep-23 21:00N 29°32' W 090°51'  
2017-Sep-16 06:47N 29°25' W 094°43'0 0.0
2017-Sep-16 06:30N 29°25' W 094°43'  

Dump ship's entire track history